Time;durP1;ratioP1;P1;durP2;ratioP2;P2;SDS_P1;SDS_P2;PMS_P1;PMS_P2;Temp;Humidity;BMP_temperature;BMP_pressure;BME280_temperature;BME280_humidity;BME280_pressure;Samples;Min_cycle;Max_cycle;Signal;HPM_P1;HPM_P2
2023/11/20 00:00:06;;;;;;;2.40;1.20;;;;;;;-2.12;100.00;100064.96;104747;1256;72817;-57
2023/11/20 00:02:42;;;;;;;2.40;1.40;;;;;;;-2.14;100.00;100066.55;104622;1256;60548;-57
2023/11/20 00:05:11;;;;;;;1.90;1.20;;;;;;;-2.19;100.00;100061.21;105898;1258;61078;-57
2023/11/20 00:07:39;;;;;;;1.60;1.20;;;;;;;-2.24;100.00;100055.39;106271;1256;72607;-56
2023/11/20 00:10:07;;;;;;;4.00;1.20;;;;;;;-2.27;100.00;100053.59;105685;1256;67077;-56
2023/11/20 00:12:34;;;;;;;2.80;1.50;;;;;;;-2.31;100.00;100048.84;104727;1255;72755;-57
2023/11/20 00:15:02;;;;;;;2.30;1.20;;;;;;;-2.32;100.00;100049.00;104759;1256;60453;-56
2023/11/20 00:17:29;;;;;;;1.40;1.00;;;;;;;-2.32;100.00;100046.71;104887;1256;60440;-57
2023/11/20 00:19:57;;;;;;;3.20;1.80;;;;;;;-2.32;100.00;100048.30;104708;1256;74240;-57
2023/11/20 00:22:25;;;;;;;2.50;1.30;;;;;;;-2.30;100.00;100049.17;104641;1260;65627;-57
2023/11/20 00:24:52;;;;;;;1.90;1.50;;;;;;;-2.27;100.00;100049.02;104663;1258;73154;-57
2023/11/20 00:27:19;;;;;;;2.90;1.50;;;;;;;-2.24;100.00;100048.71;104834;1257;60547;-57
2023/11/20 00:29:47;;;;;;;4.10;1.40;;;;;;;-2.20;100.00;100050.48;104888;1253;60534;-57
2023/11/20 00:32:15;;;;;;;2.40;1.80;;;;;;;-2.20;100.00;100048.02;105120;1257;74247;-57
2023/11/20 00:34:43;;;;;;;2.00;1.60;;;;;;;-2.21;100.00;100043.63;104845;1256;65608;-57
2023/11/20 00:37:10;;;;;;;2.70;1.30;;;;;;;-2.24;100.00;100043.08;104829;1253;71488;-58
2023/11/20 00:39:39;;;;;;;2.10;1.60;;;;;;;-2.28;100.00;100039.52;106180;1254;61135;-58
2023/11/20 00:42:07;;;;;;;2.70;1.30;;;;;;;-2.31;100.00;100035.84;105054;1253;60457;-58
2023/11/20 00:44:34;;;;;;;3.00;1.20;;;;;;;-2.32;100.00;100036.16;104894;1257;75040;-58
2023/11/20 00:47:02;;;;;;;3.30;1.30;;;;;;;-2.33;100.00;100034.75;104948;1258;65804;-58
2023/11/20 00:49:30;;;;;;;2.90;1.60;;;;;;;-2.32;100.00;100031.95;105317;1258;70201;-57
2023/11/20 00:51:57;;;;;;;3.10;1.10;;;;;;;-2.31;100.00;100028.27;105029;1258;60544;-58
2023/11/20 00:54:25;;;;;;;2.70;1.40;;;;;;;-2.28;100.00;100024.05;104881;1255;60463;-57
2023/11/20 00:56:52;;;;;;;3.10;1.10;;;;;;;-2.26;100.00;100018.98;105137;1256;72491;-57
2023/11/20 00:59:20;;;;;;;1.70;1.30;;;;;;;-2.23;100.00;100015.84;104824;1259;69050;-56
2023/11/20 01:01:47;;;;;;;3.60;1.60;;;;;;;-2.21;100.00;100015.67;104973;1253;72667;-56
2023/11/20 01:04:15;;;;;;;2.40;1.20;;;;;;;-2.22;100.00;100016.39;109016;1253;58690;-58
2023/11/20 01:06:42;;;;;;;3.60;1.40;;;;;;;-2.22;100.00;100014.63;106597;1256;60319;-56
2023/11/20 01:09:10;;;;;;;2.00;1.70;;;;;;;-2.21;100.00;100013.05;104886;1253;72976;-56
2023/11/20 01:11:42;;;;;;;3.70;1.60;;;;;;;-2.23;100.00;100012.52;109055;1254;68037;-57
2023/11/20 01:14:12;;;;;;;2.80;1.90;;;;;;;-2.25;100.00;100010.38;109059;1254;72721;-57
2023/11/20 01:16:40;;;;;;;2.50;1.60;;;;;;;-2.30;100.00;100005.95;108964;1254;60356;-56
2023/11/20 01:19:08;;;;;;;1.80;1.60;;;;;;;-2.32;100.00;100002.25;107169;1255;61270;-56
2023/11/20 01:21:37;;;;;;;1.80;1.50;;;;;;;-2.32;100.00;100002.60;104813;1256;72657;-56
2023/11/20 01:24:06;;;;;;;2.00;1.60;;;;;;;-2.33;100.00;100002.23;108929;1254;67052;-56
2023/11/20 01:26:35;;;;;;;2.70;1.30;;;;;;;-2.32;100.00;99998.91;109080;1253;71484;-56
2023/11/20 01:29:03;;;;;;;2.00;1.50;;;;;;;-2.31;100.00;99998.74;108900;1253;60423;-56
2023/11/20 01:31:30;;;;;;;4.40;2.10;;;;;;;-2.28;100.00;99997.52;109099;1254;60498;-56
2023/11/20 01:33:58;;;;;;;3.40;2.30;;;;;;;-2.25;100.00;99998.25;108842;1253;72045;-56
2023/11/20 01:36:26;;;;;;;3.50;2.20;;;;;;;-2.22;100.00;99992.82;107332;1257;64751;-56
2023/11/20 01:38:53;;;;;;;3.20;2.00;;;;;;;-2.19;100.00;99994.59;104884;1259;72738;-57
2023/11/20 01:41:21;;;;;;;4.80;3.20;;;;;;;-2.18;100.00;99992.84;105269;1256;60637;-57
2023/11/20 01:43:50;;;;;;;3.10;2.90;;;;;;;-2.18;100.00;99997.58;102592;1254;3534316;-57
2023/11/20 01:47:25;;;;;;;4.90;2.50;;;;;;;-2.21;100.00;100051.02;101911;1291;600873;-57
2023/11/20 01:49:52;;;;;;;2.60;2.30;;;;;;;-2.23;100.00;100054.35;104821;1269;61691;-57
2023/11/20 01:52:21;;;;;;;2.90;2.10;;;;;;;-2.24;100.00;100045.89;103963;1266;59232;-58
2023/11/20 01:54:48;;;;;;;4.60;2.40;;;;;;;-2.24;100.00;100041.86;104111;1265;72330;-57
2023/11/20 01:57:15;;;;;;;2.00;1.50;;;;;;;-2.25;100.00;100036.92;103987;1266;67058;-57
2023/11/20 01:59:43;;;;;;;5.50;2.20;;;;;;;-2.23;100.00;100033.61;103884;1266;71499;-57
2023/11/20 02:02:10;;;;;;;3.70;1.80;;;;;;;-2.18;100.00;100033.63;102300;1257;3492146;-57
2023/11/20 02:04:39;;;;;;;2.40;1.70;;;;;;;-2.16;100.00;100029.44;104982;1258;59194;-57
2023/11/20 02:07:10;;;;;;;3.00;1.60;;;;;;;-2.13;100.00;100030.86;104946;1254;72306;-57
2023/11/20 02:09:38;;;;;;;3.30;2.30;;;;;;;-2.10;100.00;100027.17;105240;1258;67042;-57
2023/11/20 02:12:06;;;;;;;2.90;2.00;;;;;;;-2.11;100.00;100025.59;104876;1253;71594;-57
2023/11/20 02:14:33;;;;;;;3.30;2.30;;;;;;;-2.13;100.00;100021.20;105068;1257;59721;-57
2023/11/20 02:17:00;;;;;;;3.40;2.10;;;;;;;-2.16;100.00;100018.53;104853;1259;59625;-57
2023/11/20 02:19:28;;;;;;;3.10;2.10;;;;;;;-2.20;100.00;100011.98;105080;1253;71813;-57
2023/11/20 02:21:57;;;;;;;4.10;3.70;;;;;;;-2.23;100.00;100011.45;104809;1254;66744;-59
2023/11/20 02:24:26;;;;;;;3.20;1.90;;;;;;;-2.24;100.00;100004.94;104942;1257;72744;-57
2023/11/20 02:27:01;;;;;;;3.60;2.40;;;;;;;-2.24;100.00;100006.88;104960;1254;59764;-56
2023/11/20 02:29:32;;;;;;;2.10;1.90;;;;;;;-2.24;100.00;100003.20;105027;1253;60511;-57
2023/11/20 02:31:59;;;;;;;3.00;1.80;;;;;;;-2.23;100.00;100003.54;105067;1254;72771;-56
2023/11/20 02:34:27;;;;;;;5.10;2.10;;;;;;;-2.20;100.00;100003.72;105014;1252;65753;-59
2023/11/20 02:36:58;;;;;;;2.30;1.30;;;;;;;-2.16;100.00;100003.59;105010;1253;72479;-57
2023/11/20 02:39:25;;;;;;;3.00;2.00;;;;;;;-2.13;100.00;99997.28;104864;1258;59622;-57
2023/11/20 02:41:53;;;;;;;2.90;1.70;;;;;;;-2.11;100.00;99996.21;104970;1252;60086;-57
2023/11/20 02:44:20;;;;;;;2.20;1.50;;;;;;;-2.11;100.00;99994.98;104980;1253;71849;-58
2023/11/20 02:46:48;;;;;;;3.60;2.60;;;;;;;-2.11;100.00;99993.23;105076;1253;67066;-56
2023/11/20 02:49:16;;;;;;;4.30;2.30;;;;;;;-2.12;100.00;99987.77;105029;1253;72744;-57
2023/11/20 02:51:43;;;;;;;2.50;2.30;;;;;;;-2.14;100.00;99984.44;104770;1253;60227;-57
2023/11/20 02:54:11;;;;;;;4.50;2.50;;;;;;;-2.15;100.00;99980.39;104815;1256;59671;-58
2023/11/20 02:56:40;;;;;;;4.40;2.70;;;;;;;-2.16;100.00;99974.39;104894;1259;70887;-58
2023/11/20 02:59:08;;;;;;;2.50;2.10;;;;;;;-2.17;100.00;99973.52;105506;1254;65711;-56
2023/11/20 03:01:36;;;;;;;6.00;2.80;;;;;;;-2.16;100.00;99967.19;104623;1259;73595;-56
2023/11/20 03:04:04;;;;;;;5.90;4.20;;;;;;;-2.14;100.00;99964.05;106876;1253;60932;-58
2023/11/20 03:06:32;;;;;;;4.00;3.40;;;;;;;-2.12;100.00;99963.34;104832;1253;59729;-57
2023/11/20 03:08:59;;;;;;;2.90;1.80;;;;;;;-2.10;100.00;99960.19;104991;1253;75372;-57
2023/11/20 03:11:26;;;;;;;5.60;4.00;;;;;;;-2.08;100.00;99959.85;104878;1257;66851;-57
2023/11/20 03:13:54;;;;;;;5.70;4.00;;;;;;;-2.07;100.00;99953.17;104898;1258;71394;-57
2023/11/20 03:16:22;;;;;;;4.20;2.70;;;;;;;-2.06;100.00;99952.48;105190;1253;60171;-57
2023/11/20 03:18:49;;;;;;;3.30;2.50;;;;;;;-2.07;100.00;99943.52;105423;1253;62038;-58
2023/11/20 03:21:17;;;;;;;4.10;3.20;;;;;;;-2.06;100.00;99941.05;104941;1253;73112;-58
2023/11/20 03:23:45;;;;;;;3.40;2.40;;;;;;;-2.07;100.00;99941.58;104873;1257;66008;-56
2023/11/20 03:26:13;;;;;;;3.00;2.50;;;;;;;-2.09;100.00;99938.56;104949;1257;74869;-58
2023/11/20 03:28:40;;;;;;;3.50;2.20;;;;;;;-2.11;100.00;99935.56;105031;1253;59647;-58
2023/11/20 03:31:08;;;;;;;3.80;2.50;;;;;;;-2.11;100.00;99930.64;105118;1257;59628;-58
2023/11/20 03:33:35;;;;;;;3.30;2.80;;;;;;;-2.12;100.00;99927.64;105029;1258;72826;-57
2023/11/20 03:36:03;;;;;;;4.00;2.00;;;;;;;-2.13;100.00;99926.60;104871;1257;69285;-56
2023/11/20 03:38:31;;;;;;;3.00;2.20;;;;;;;-2.16;100.00;99920.60;105209;1257;72744;-55
2023/11/20 03:40:58;;;;;;;3.30;2.20;;;;;;;-2.16;100.00;99920.08;104979;1253;61378;-58
2023/11/20 03:43:28;;;;;;;2.10;1.50;;;;;;;-2.13;100.00;99921.85;104962;1259;60110;-57
2023/11/20 03:45:55;;;;;;;2.60;1.80;;;;;;;-2.09;100.00;99914.13;105133;1253;71836;-57
2023/11/20 03:48:23;;;;;;;2.00;1.20;;;;;;;-2.07;100.00;99913.61;105131;1252;65825;-57
2023/11/20 03:50:50;;;;;;;1.30;1.00;;;;;;;-2.03;100.00;99915.38;105160;1253;72780;-56
2023/11/20 03:53:18;;;;;;;1.90;1.20;;;;;;;-2.00;100.00;99911.73;105114;1253;60099;-58
2023/11/20 03:55:45;;;;;;;1.30;1.00;;;;;;;-1.98;100.00;99913.84;105091;1253;59705;-57
2023/11/20 03:58:13;;;;;;;2.00;0.90;;;;;;;-1.98;100.00;99911.20;105019;1258;73298;-56
2023/11/20 04:00:41;;;;;;;1.30;1.10;;;;;;;-2.00;100.00;99906.96;105820;1252;67807;-58
2023/11/20 04:03:09;;;;;;;3.80;1.30;;;;;;;-2.02;100.00;99900.27;106230;1257;70502;-57
2023/11/20 04:05:37;;;;;;;4.90;1.30;;;;;;;-2.06;100.00;99899.38;104972;1258;59709;-57
2023/11/20 04:08:05;;;;;;;3.60;1.20;;;;;;;-2.13;100.00;99899.33;104977;1253;60271;-56
2023/11/20 04:10:32;;;;;;;2.40;1.10;;;;;;;-2.21;100.00;99896.66;105021;1252;73118;-57
2023/11/20 04:13:00;;;;;;;1.20;0.90;;;;;;;-2.27;100.00;99896.27;105110;1258;66030;-58
2023/11/20 04:15:28;;;;;;;2.80;1.00;;;;;;;-2.30;100.00;99896.27;105030;1257;71382;-57
2023/11/20 04:17:55;;;;;;;1.20;0.90;;;;;;;-2.30;100.00;99889.23;105001;1254;59721;-57
2023/11/20 04:20:23;;;;;;;2.10;0.90;;;;;;;-2.31;100.00;99889.41;105026;1253;60569;-58
2023/11/20 04:22:51;;;;;;;1.00;0.80;;;;;;;-2.32;100.00;99888.35;108949;1252;71586;-56
2023/11/20 04:25:19;;;;;;;2.70;1.20;;;;;;;-2.32;100.00;99890.64;105086;1255;66996;-56
2023/11/20 04:27:51;;;;;;;3.60;0.90;;;;;;;-2.29;100.00;99891.52;105162;1253;71515;-54
2023/11/20 04:30:20;;;;;;;4.10;0.70;;;;;;;-2.27;100.00;99892.75;109185;1253;59650;-58
2023/11/20 04:32:47;;;;;;;1.10;0.90;;;;;;;-2.25;100.00;99894.88;109348;1253;60089;-58
2023/11/20 04:35:15;;;;;;;1.30;0.90;;;;;;;-2.21;100.00;99898.42;109157;1253;73581;-57
2023/11/20 04:37:42;;;;;;;1.80;0.90;;;;;;;-2.17;100.00;99897.20;109187;1253;67278;-59
2023/11/20 04:40:11;;;;;;;2.50;1.00;;;;;;;-2.15;100.00;99900.75;109187;1253;72719;-58
2023/11/20 04:42:38;;;;;;;2.10;0.90;;;;;;;-2.14;100.00;99895.65;106693;1254;59596;-58
2023/11/20 04:45:06;;;;;;;1.50;1.00;;;;;;;-2.16;100.00;99892.83;105187;1253;61515;-56
2023/11/20 04:47:34;;;;;;;2.80;1.00;;;;;;;-2.19;100.00;99894.02;105158;1253;73119;-57
2023/11/20 04:50:02;;;;;;;1.70;1.30;;;;;;;-2.23;100.00;99886.46;105091;1252;65704;-59
2023/11/20 04:52:29;;;;;;;2.90;1.00;;;;;;;-2.27;100.00;99883.44;105139;1259;72728;-58
2023/11/20 04:54:57;;;;;;;1.60;0.90;;;;;;;-2.31;100.00;99884.67;105070;1253;61675;-58
2023/11/20 04:57:24;;;;;;;3.50;0.90;;;;;;;-2.34;100.00;99883.77;104960;1253;60499;-57
2023/11/20 04:59:51;;;;;;;1.70;1.00;;;;;;;-2.37;100.00;99882.33;105211;1253;71792;-59
2023/11/20 05:02:19;;;;;;;2.60;1.20;;;;;;;-2.38;100.00;99880.91;105111;1253;67284;-55
2023/11/20 05:04:46;;;;;;;5.00;1.00;;;;;;;-2.37;100.00;99876.52;104921;1259;72749;-58
2023/11/20 05:07:14;;;;;;;2.70;1.40;;;;;;;-2.35;100.00;99876.73;105024;1259;59948;-56
2023/11/20 05:09:41;;;;;;;2.10;1.20;;;;;;;-2.32;100.00;99878.50;105642;1253;60389;-59
2023/11/20 05:12:09;;;;;;;1.30;1.00;;;;;;;-2.29;100.00;99880.63;105087;1258;71271;-57
2023/11/20 05:14:36;;;;;;;1.60;1.10;;;;;;;-2.26;100.00;99885.02;105018;1257;69036;-58
2023/11/20 05:17:04;;;;;;;2.90;1.20;;;;;;;-2.23;100.00;99880.66;105025;1253;74501;-57
2023/11/20 05:19:32;;;;;;;2.00;1.00;;;;;;;-2.22;100.00;99880.32;105369;1259;59663;-59
2023/11/20 05:21:59;;;;;;;1.50;1.10;;;;;;;-2.18;100.00;99879.79;105013;1258;60320;-57
2023/11/20 05:24:27;;;;;;;1.40;1.00;;;;;;;-2.16;100.00;99884.21;104886;1259;73197;-57
2023/11/20 05:26:54;;;;;;;1.70;1.20;;;;;;;-2.15;100.00;99885.09;105189;1259;67296;-57
2023/11/20 05:29:22;;;;;;;2.40;1.20;;;;;;;-2.16;100.00;99883.16;105016;1254;72621;-58
2023/11/20 05:31:49;;;;;;;2.70;1.80;;;;;;;-2.20;100.00;99879.61;104976;1253;59763;-57
2023/11/20 05:34:17;;;;;;;3.10;1.30;;;;;;;-2.24;100.00;99879.77;104712;1252;59979;-57
2023/11/20 05:36:45;;;;;;;3.90;1.40;;;;;;;-2.26;100.00;99875.88;104919;1253;71986;-57
2023/11/20 05:39:12;;;;;;;2.30;1.10;;;;;;;-2.30;100.00;99875.35;105020;1259;66924;-58
2023/11/20 05:41:39;;;;;;;3.70;1.40;;;;;;;-2.35;100.00;99878.48;105056;1253;71461;-56
2023/11/20 05:44:07;;;;;;;2.50;1.40;;;;;;;-2.39;100.00;99877.59;105057;1252;59703;-58
2023/11/20 05:46:34;;;;;;;2.20;1.20;;;;;;;-2.39;100.00;99883.21;105117;1254;60184;-57
2023/11/20 05:49:02;;;;;;;5.80;1.30;;;;;;;-2.37;100.00;99885.14;104918;1254;72296;-58
2023/11/20 05:51:30;;;;;;;2.50;1.70;;;;;;;-2.34;100.00;99887.27;104877;1257;65574;-56
2023/11/20 05:53:57;;;;;;;2.40;1.20;;;;;;;-2.32;100.00;99883.25;106029;1254;71476;-56
2023/11/20 05:56:29;;;;;;;4.00;1.30;;;;;;;-2.29;100.00;99887.83;105016;1257;60466;-56
2023/11/20 05:58:57;;;;;;;2.80;1.50;;;;;;;-2.26;100.00;99891.00;105451;1257;60588;-56
2023/11/20 06:01:26;;;;;;;3.20;1.20;;;;;;;-2.24;100.00;99892.43;104956;1254;74345;-57
2023/11/20 06:03:53;;;;;;;2.00;1.50;;;;;;;-2.23;100.00;99895.08;105155;1254;66819;-57
2023/11/20 06:06:22;;;;;;;3.10;1.40;;;;;;;-2.22;100.00;99898.78;104942;1254;73168;-57
2023/11/20 06:08:49;;;;;;;2.30;1.40;;;;;;;-2.22;100.00;99898.08;105029;1254;60549;-56
2023/11/20 06:11:20;;;;;;;3.30;1.40;;;;;;;-2.22;100.00;99904.58;105090;1260;60411;-57
2023/11/20 06:13:48;;;;;;;2.50;1.60;;;;;;;-2.23;100.00;99904.73;105043;1254;73921;-56
2023/11/20 06:16:16;;;;;;;1.70;1.40;;;;;;;-2.25;100.00;99895.23;105104;1254;65498;-56
2023/11/20 06:18:43;;;;;;;4.00;1.50;;;;;;;-2.26;100.00;99896.10;106247;1257;73852;-56
2023/11/20 06:21:11;;;;;;;2.30;1.30;;;;;;;-2.27;100.00;99899.43;105043;1254;60944;-55
2023/11/20 06:23:38;;;;;;;2.30;1.30;;;;;;;-2.27;100.00;99901.36;105002;1254;60502;-59
2023/11/20 06:26:06;;;;;;;2.90;1.30;;;;;;;-2.25;100.00;99893.48;105086;1255;73927;-55
2023/11/20 06:28:33;;;;;;;2.70;1.40;;;;;;;-2.21;100.00;99890.68;105046;1254;67375;-58
2023/11/20 06:31:01;;;;;;;5.00;1.80;;;;;;;-2.18;100.00;99894.04;105142;1254;72625;-56
2023/11/20 06:33:28;;;;;;;3.30;1.60;;;;;;;-2.17;100.00;99895.45;104988;1258;60925;-58
2023/11/20 06:35:56;;;;;;;4.10;1.40;;;;;;;-2.15;100.00;99901.62;105051;1254;60543;-56
2023/11/20 06:38:23;;;;;;;2.20;1.40;;;;;;;-2.13;100.00;99903.73;105849;1258;74292;-56
2023/11/20 06:40:52;;;;;;;3.70;1.90;;;;;;;-2.13;100.00;99910.42;104912;1254;66965;-57
2023/11/20 06:43:19;;;;;;;2.30;1.70;;;;;;;-2.11;100.00;99906.90;105017;1258;72850;-58
2023/11/20 06:45:47;;;;;;;3.40;2.00;;;;;;;-2.09;100.00;99911.31;105040;1259;60723;-57
2023/11/20 06:48:14;;;;;;;3.10;1.60;;;;;;;-2.09;100.00;99911.48;105062;1257;60589;-56
2023/11/20 06:50:42;;;;;;;4.50;1.70;;;;;;;-2.09;100.00;99912.02;104805;1259;72637;-55
2023/11/20 06:53:09;;;;;;;4.80;2.20;;;;;;;-2.08;100.00;99911.85;109157;1252;66913;-59
2023/11/20 06:55:37;;;;;;;3.30;2.10;;;;;;;-2.08;100.00;99909.91;106435;1253;71766;-59
2023/11/20 06:58:04;;;;;;;2.20;1.40;;;;;;;-2.08;100.00;99912.55;104957;1253;61020;-57
2023/11/20 07:00:31;;;;;;;1.60;1.40;;;;;;;-2.10;100.00;99910.59;105079;1253;60314;-56
2023/11/20 07:02:59;;;;;;;4.70;1.80;;;;;;;-2.10;100.00;99910.95;105078;1258;72647;-58
2023/11/20 07:05:26;;;;;;;2.30;1.50;;;;;;;-2.07;100.00;99911.85;105048;1254;66337;-57
2023/11/20 07:07:55;;;;;;;3.70;1.30;;;;;;;-2.03;100.00;99913.98;104733;1253;72495;-57
2023/11/20 07:10:23;;;;;;;2.50;1.20;;;;;;;-1.99;100.00;99912.07;109203;1253;59658;-55
2023/11/20 07:12:52;;;;;;;2.80;1.40;;;;;;;-1.96;100.00;99909.09;109178;1252;58457;-56
2023/11/20 07:15:21;;;;;;;3.50;1.50;;;;;;;-1.90;100.00;99911.59;108047;1257;72595;-56
2023/11/20 07:17:48;;;;;;;2.90;2.20;;;;;;;-1.81;100.00;99910.38;105094;1253;66457;-55
2023/11/20 07:20:16;;;;;;;3.10;1.60;;;;;;;-1.73;100.00;99914.29;108908;1253;70508;-56
2023/11/20 07:22:45;;;;;;;3.70;2.10;;;;;;;-1.67;100.00;99908.32;109052;1252;59239;-56
2023/11/20 07:25:13;;;;;;;4.40;1.90;;;;;;;-1.64;100.00;99905.52;109072;1253;61419;-55
2023/11/20 07:27:42;;;;;;;3.90;2.40;;;;;;;-1.59;100.00;99904.48;106813;1256;73924;-55
2023/11/20 07:30:10;;;;;;;6.60;2.10;;;;;;;-1.55;100.00;99906.25;105095;1254;66140;-56
2023/11/20 07:32:37;;;;;;;3.10;2.30;;;;;;;-1.51;100.00;99904.48;106215;1256;73157;-55
2023/11/20 07:35:07;;;;;;;3.30;2.50;;;;;;;-1.48;100.00;99906.98;108936;1253;60447;-55
2023/11/20 07:37:35;;;;;;;4.40;2.40;;;;;;;-1.46;100.00;99912.62;105218;1259;60476;-54
2023/11/20 07:40:08;;;;;;;6.80;2.90;;;;;;;-1.46;100.00;99906.81;105252;1258;74334;-53
2023/11/20 07:42:37;;;;;;;5.30;2.80;;;;;;;-1.45;100.00;99909.98;105546;1259;66934;-57
2023/11/20 07:45:06;;;;;;;5.40;3.30;;;;;;;-1.43;100.00;99905.73;105182;1254;71366;-56
2023/11/20 07:47:33;;;;;;;4.30;2.70;;;;;;;-1.41;100.00;99906.45;105001;1259;60439;-55
2023/11/20 07:50:02;;;;;;;3.10;2.60;;;;;;;-1.38;100.00;99909.28;105518;1257;60332;-55
2023/11/20 07:52:30;;;;;;;3.60;2.50;;;;;;;-1.35;100.00;99903.83;105114;1259;73853;-54
2023/11/20 07:54:58;;;;;;;4.20;2.40;;;;;;;-1.30;100.00;99900.33;105159;1257;65725;-53
2023/11/20 07:57:26;;;;;;;4.10;2.90;;;;;;;-1.25;100.00;99903.66;106818;1254;72719;-53
2023/11/20 07:59:53;;;;;;;4.20;3.60;;;;;;;-1.20;100.00;99903.14;105024;1254;60483;-52
2023/11/20 08:02:21;;;;;;;5.20;3.10;;;;;;;-1.16;100.00;99899.09;106554;1253;59794;-53
2023/11/20 08:04:49;;;;;;;6.30;3.10;;;;;;;-1.12;100.00;99893.13;105009;1257;72980;-53
2023/11/20 08:07:16;;;;;;;7.40;4.20;;;;;;;-1.07;100.00;99894.00;105018;1253;66097;-54
2023/11/20 08:09:44;;;;;;;5.70;3.30;;;;;;;-1.03;100.00;99897.19;104944;1253;71452;-53
2023/11/20 08:12:12;;;;;;;5.40;3.80;;;;;;;-1.01;100.00;99894.54;105026;1257;60457;-54
2023/11/20 08:14:39;;;;;;;5.20;3.90;;;;;;;-0.98;100.00;99891.71;104853;1257;60597;-54
2023/11/20 08:17:08;;;;;;;5.50;4.30;;;;;;;-0.96;100.00;99893.14;105149;1257;72942;-53
2023/11/20 08:19:41;;;;;;;7.60;3.70;;;;;;;-0.96;100.00;99890.49;105224;1254;67682;-52
2023/11/20 08:22:08;;;;;;;4.60;3.40;;;;;;;-0.95;100.00;99885.91;104852;1253;72652;-53
2023/11/20 08:24:38;;;;;;;4.40;2.70;;;;;;;-0.95;100.00;99881.34;108674;1253;60508;-52
2023/11/20 08:27:06;;;;;;;5.30;3.20;;;;;;;-0.94;100.00;99883.27;107082;1254;62034;-52
2023/11/20 08:29:33;;;;;;;5.80;3.00;;;;;;;-0.90;100.00;99880.27;105342;1253;72075;-53
2023/11/20 08:32:01;;;;;;;4.70;3.10;;;;;;;-0.86;100.00;99882.38;105177;1258;69655;-53
2023/11/20 08:34:28;;;;;;;5.60;3.10;;;;;;;-0.81;100.00;99882.55;105291;1254;74063;-53
2023/11/20 08:36:56;;;;;;;4.70;2.70;;;;;;;-0.76;100.00;99880.80;105285;1259;60710;-54
2023/11/20 08:39:31;;;;;;;5.00;3.30;;;;;;;-0.71;100.00;99878.86;106360;1257;60331;-54
2023/11/20 08:41:59;;;;;;;12.90;4.00;;;;;;;-0.67;100.00;99880.77;104866;1253;72658;-54
2023/11/20 08:44:27;;;;;;;5.20;3.90;;;;;;;-0.63;100.00;99876.73;104998;1253;67175;-53
2023/11/20 08:46:54;;;;;;;7.30;4.20;;;;;;;-0.62;100.00;99880.95;105073;1253;72797;-53
2023/11/20 08:49:22;;;;;;;6.70;3.80;;;;;;;-0.62;100.00;99881.14;105268;1259;60406;-54
2023/11/20 08:51:50;;;;;;;5.70;4.20;;;;;;;-0.61;100.00;99882.73;106262;1256;59719;-54
2023/11/20 08:54:32;;;;;;;7.30;4.70;;;;;;;-0.60;100.00;99887.48;104953;1254;73816;-54
2023/11/20 08:56:59;;;;;;;7.20;3.50;;;;;;;-0.61;100.00;99883.25;107232;1256;66838;-54
2023/11/20 08:59:27;;;;;;;6.80;3.40;;;;;;;-0.63;100.00;99882.72;106569;1254;72597;-54
2023/11/20 09:01:59;;;;;;;3.30;2.40;;;;;;;-0.60;100.00;99881.31;105197;1252;62743;-54
2023/11/20 09:04:26;;;;;;;3.60;2.10;;;;;;;-0.60;100.00;99876.56;104845;1257;60460;-55
2023/11/20 09:06:54;;;;;;;3.40;2.40;;;;;;;-0.60;100.00;99874.80;105060;1255;76160;-54
2023/11/20 09:09:22;;;;;;;7.10;2.30;;;;;;;-0.60;100.00;99872.33;105000;1267;67513;-54
2023/11/20 09:11:49;;;;;;;4.70;2.70;;;;;;;-0.57;100.00;99877.06;105074;1254;71485;-55
2023/11/20 09:14:17;;;;;;;3.70;2.60;;;;;;;-0.51;100.00;99877.94;104838;1253;61253;-55
2023/11/20 09:16:45;;;;;;;4.60;2.60;;;;;;;-0.49;100.00;99873.34;104799;1259;60533;-54
2023/11/20 09:19:12;;;;;;;5.00;2.20;;;;;;;-0.46;100.00;99868.41;105332;1253;74360;-55
2023/11/20 09:21:40;;;;;;;4.70;3.30;;;;;;;-0.42;100.00;99866.28;105052;1259;66962;-55
2023/11/20 09:24:09;;;;;;;4.70;3.30;;;;;;;-0.42;100.00;99860.30;105129;1257;73124;-55
2023/11/20 09:26:36;;;;;;;4.00;2.50;;;;;;;-0.49;100.00;99849.73;105036;1259;63691;-55
2023/11/20 09:29:06;;;;;;;8.20;3.50;;;;;;;-0.49;100.00;99846.20;105078;1253;60549;-55
2023/11/20 09:31:34;;;;;;;5.70;3.80;;;;;;;-0.47;100.00;99848.30;105143;1253;74283;-54
2023/11/20 09:34:03;;;;;;;7.90;4.40;;;;;;;-0.46;100.00;99848.84;105597;1259;66134;-52
2023/11/20 09:36:31;;;;;;;10.50;5.30;;;;;;;-0.44;100.00;99850.08;106373;1258;73163;-53
2023/11/20 09:38:58;;;;;;;7.70;4.40;;;;;;;-0.44;100.00;99850.42;104951;1257;61476;-54
2023/11/20 09:41:26;;;;;;;6.70;4.00;;;;;;;-0.45;100.00;99847.96;104961;1256;60313;-53
2023/11/20 09:43:55;;;;;;;5.80;4.10;;;;;;;-0.41;100.00;99847.05;104845;1255;72667;-54
2023/11/20 09:46:22;;;;;;;8.00;4.20;;;;;;;-0.33;100.00;99845.27;105000;1253;65059;-53
2023/11/20 09:48:50;;;;;;;5.80;3.30;;;;;;;-0.25;100.00;99848.07;104742;1256;73552;-54
2023/11/20 09:51:21;;;;;;;6.70;4.30;;;;;;;-0.20;100.00;99847.19;104747;1255;60631;-54
2023/11/20 09:53:48;;;;;;;7.80;4.30;;;;;;;-0.16;100.00;99847.85;108982;1253;62353;-55
2023/11/20 09:56:16;;;;;;;7.30;4.30;;;;;;;-0.13;100.00;99848.38;109169;1254;74113;-54
2023/11/20 09:58:43;;;;;;;10.50;5.80;;;;;;;-0.09;100.00;99854.90;109028;1253;67721;-55
2023/11/20 10:01:12;;;;;;;7.20;4.80;;;;;;;-0.05;100.00;99850.64;109044;1254;72715;-55
2023/11/20 10:03:42;;;;;;;8.60;6.30;;;;;;;-0.01;100.00;99849.94;109119;1253;60088;-54
2023/11/20 10:06:13;;;;;;;9.70;6.50;;;;;;;0.00;100.00;99849.91;109162;1254;60094;-55
2023/11/20 10:08:42;;;;;;;10.40;5.70;;;;;;;0.01;100.00;99848.31;109137;1253;74735;-54
2023/11/20 10:11:21;;;;;;;8.40;5.50;;;;;;;0.03;100.00;99841.96;109217;1254;66758;-55
2023/11/20 10:13:48;;;;;;;13.20;6.40;;;;;;;0.07;100.00;99847.26;106261;1257;72746;-54
2023/11/20 10:16:19;;;;;;;7.10;6.00;;;;;;;0.09;100.00;99840.52;104891;1258;60425;-54
2023/11/20 10:18:48;;;;;;;7.90;5.20;;;;;;;0.10;100.00;99839.80;109116;1254;59083;-54
2023/11/20 10:21:18;;;;;;;7.60;4.70;;;;;;;0.15;100.00;99843.52;109152;1252;72651;-54
2023/11/20 10:23:46;;;;;;;14.70;6.40;;;;;;;0.20;100.00;99841.17;107070;1254;67459;-54
2023/11/20 10:26:13;;;;;;;13.30;5.50;;;;;;;0.27;100.00;99839.55;105217;1257;75021;-54
2023/11/20 10:28:41;;;;;;;13.80;6.30;;;;;;;0.35;100.00;99843.56;106181;1251;60538;-53
2023/11/20 10:31:09;;;;;;;11.40;7.20;;;;;;;0.45;100.00;99846.69;105580;1257;60306;-53
2023/11/20 10:33:36;;;;;;;11.50;6.70;;;;;;;0.53;100.00;99851.92;106190;1256;72651;-54
2023/11/20 10:36:15;;;;;;;10.90;6.90;;;;;;;0.56;100.00;99851.21;105000;1256;65928;-51
2023/11/20 10:38:43;;;;;;;10.20;6.20;;;;;;;0.59;100.00;99859.31;105588;1256;71419;-53
2023/11/20 10:41:11;;;;;;;10.50;6.50;;;;;;;0.61;100.00;99858.05;105887;1259;60469;-54
2023/11/20 10:43:40;;;;;;;8.00;5.90;;;;;;;0.63;100.00;99860.16;107562;1256;59339;-54
2023/11/20 10:46:09;;;;;;;8.40;5.50;;;;;;;0.65;100.00;99859.45;105081;1256;73909;-53
2023/11/20 10:48:37;;;;;;;9.50;6.90;;;;;;;0.68;100.00;99854.84;105068;1253;65652;-53
2023/11/20 10:51:07;;;;;;;14.80;7.60;;;;;;;0.71;100.00;99856.57;105052;1256;71318;-55
2023/11/20 10:53:41;;;;;;;12.40;6.30;;;;;;;0.73;100.00;99856.39;104970;1259;60639;-55
2023/11/20 10:56:13;;;;;;;11.70;7.50;;;;;;;0.75;100.00;99855.33;104886;1254;60473;-55
2023/11/20 10:58:41;;;;;;;8.30;6.30;;;;;;;0.78;100.00;99857.58;105131;1258;72645;-55
2023/11/20 11:01:09;;;;;;;8.60;6.40;;;;;;;0.77;100.00;99858.47;105851;1252;65823;-54
2023/11/20 11:03:37;;;;;;;8.70;6.00;;;;;;;0.77;100.00;99862.36;105343;1251;71635;-53
2023/11/20 11:06:12;;;;;;;11.50;6.20;;;;;;;0.80;100.00;99861.46;104743;1260;60837;-54
2023/11/20 11:08:45;;;;;;;11.00;7.10;;;;;;;0.84;100.00;99861.60;104936;1251;60630;-54
2023/11/20 11:11:14;;;;;;;7.80;4.90;;;;;;;0.90;100.00;99861.91;104994;1256;73962;-55
2023/11/20 11:13:43;;;;;;;7.90;5.10;;;;;;;0.96;100.00;99863.63;104872;1258;69013;-55
2023/11/20 11:16:18;;;;;;;8.50;4.60;;;;;;;1.03;100.00;99864.81;104954;1254;71388;-55
2023/11/20 11:18:46;;;;;;;6.30;4.70;;;;;;;1.09;100.00;99867.25;104866;1254;60667;-55
2023/11/20 11:21:16;;;;;;;7.70;4.90;;;;;;;1.13;100.00;99865.26;105303;1257;60487;-55